Terminal Aerodrome Forecast
Issued by NWS Upton, NY

Home | Current Version | Previous Version | Text Only | Print | Product List | Glossary On
Versions: 1 2 3 4 5 6 7 8 9 10 11 12 13 14 15 16 17 18 19 20 21 22 23 24 25 26 27 28 29 30 31 32 33 34 35 36 37 38 39
211
FTUS41 KOKX 042138 AAF
TAFLGA
TAF AMD
KLGA 042138Z 0422/0518 05014G18KT P6SM VCSH BKN007 OVC010
      TEMPO 0422/0424 SCT007
     FM050100 04014KT 6SM -DZ OVC008
     FM051100 03013G21KT 6SM -DZ OVC008
     FM051400 03015G22KT P6SM OVC015=

USA.gov is the U.S. government's official web portal to all federal, state and local government web resources and services.